Portada
METAR-TAF:

METAR-TAF

Aeropuertos :

Rabat, Marruecos

Aeropuerto de Rabat-Salé

latitud: 34-03N, longitud: 006-46W, altitud: 84 m

Observación

El informe se hizo hace 21 minutos, a las 21:30 UTC
Viento 2 kt con dirección variable
Temperatura 11°C
Humedad 54%
Presión 1016 hPa
Visibilidad: 8000 m

METAR: GMME 222130Z VRB02KT 8000 NSC 11/02 Q1016 NOSIG

Hora: 21:51 (21:51 UTC)

Pronóstico

El informe se hizo hace 4 horas y 51 minutos, a las 17:00 UTC
Pronóstico válido del 22 a las 18 UTC al 23 a las 24 UTC
Viento 6 kt del sureste
Visibilidad: 6000 m
Nubes dispersas a una altura de 1000 ft
Nubes dispersas a una altura de 1600 ft
Temporalmente
del 23 a las 10 UTC al 23 a las 18 UTC

TAF: GMME 221700Z 2218/2324 14006KT 6000 SCT010 SCT016 TEMPO 2310/2318 VAVOK

Observaciones y pronósticos meteorológicos de más de 4000 aeropuertos (mensajes METAR y TAF).

Los puntos amarillos y rojos representan las estaciones disponibles.

Ponga el ratón en el punto deseado para ver el nombre de la estación.

Haga clic para ver las observaciones y los pronósticos meteorológicos.

Para cambiar el mapa : haga clic en los botones verdes con una cruz de color negro para hacer un zoom, en el botón verde con un guión para alejar o en las flechas verdes para mapas adyacentes.


METAR-TAF: